Time;durP1;ratioP1;P1;durP2;ratioP2;P2;SDS_P1;SDS_P2;PMS_P1;PMS_P2;Temp;Humidity;BMP_temperature;BMP_pressure;BME280_temperature;BME280_humidity;BME280_pressure;Samples;Min_cycle;Max_cycle;Signal;HPM_P1;HPM_P2
2023/09/01 00:00:35;;;;;;;;;1.00;1.00;;;;;19.63;73.08;100748.88;5057914;28;45548;-73
2023/09/01 00:03:00;;;;;;;;;2.00;1.00;;;;;19.89;73.10;100793.16;5057389;28;45895;-73
2023/09/01 00:05:26;;;;;;;;;1.25;1.25;;;;;19.81;73.38;100782.53;5057480;28;45300;-72
2023/09/01 00:07:51;;;;;;;;;1.00;1.00;;;;;19.88;73.29;100800.41;5057667;28;45557;-72
2023/09/01 00:10:16;;;;;;;;;0.00;0.00;;;;;19.85;73.00;100784.63;5057492;28;45651;-72
2023/09/01 00:12:42;;;;;;;;;3.00;0.50;;;;;19.84;73.13;100785.69;5057171;28;46570;-71
2023/09/01 00:15:07;;;;;;;;;0.25;0.25;;;;;19.64;73.58;100761.34;5057510;28;45257;-72
2023/09/01 00:17:33;;;;;;;;;0.00;0.00;;;;;19.75;73.89;100787.72;5057267;28;45398;-72
2023/09/01 00:19:58;;;;;;;;;1.67;1.67;;;;;19.72;74.24;100780.03;5072309;28;45288;-72
2023/09/01 00:22:23;;;;;;;;;4.33;3.00;;;;;19.82;73.69;100782.31;5057266;28;45758;-71
2023/09/01 00:24:48;;;;;;;;;2.75;2.25;;;;;19.80;73.80;100770.91;5057294;28;45504;-72
2023/09/01 00:27:14;;;;;;;;;0.00;0.00;;;;;19.85;74.00;100784.63;5057205;28;45411;-73
2023/09/01 00:29:39;;;;;;;;;1.00;1.00;;;;;19.78;74.20;100780.25;5057576;28;45469;-72
2023/09/01 00:32:05;;;;;;;;;2.00;2.00;;;;;19.67;74.17;100752.00;5055377;28;46449;-76
2023/09/01 00:34:31;;;;;;;;;2.00;2.00;;;;;19.72;74.48;100769.22;5055967;28;45261;-74
2023/09/01 00:36:57;;;;;;;;;0.00;0.00;;;;;19.83;74.31;100777.78;5056961;28;45455;-73
2023/09/01 00:39:22;;;;;;;;;2.00;2.00;;;;;19.81;74.70;100782.53;5056799;28;45374;-73
2023/09/01 00:41:48;;;;;;;;;0.25;0.25;;;;;19.50;74.62;100745.28;5056976;28;46784;-73
2023/09/01 00:44:15;;;;;;;;;1.75;1.00;;;;;19.75;74.59;100790.41;5056769;28;45439;-73
2023/09/01 00:46:46;;;;;;;;;0.75;0.75;;;;;19.73;74.85;100792.47;5056810;28;45408;-72
2023/09/01 00:49:12;;;;;;;;;3.25;1.00;;;;;19.74;74.76;100780.66;5057020;28;45540;-73
2023/09/01 00:51:37;;;;;;;;;1.75;1.75;;;;;19.78;74.67;100793.72;5056608;28;46638;-72
2023/09/01 00:54:03;;;;;;;;;0.50;0.50;;;;;19.68;74.90;100776.06;5055594;28;45316;-73
2023/09/01 00:56:29;;;;;;;;;2.25;2.25;;;;;19.78;74.70;100786.47;5060662;28;45304;-74
2023/09/01 00:58:54;;;;;;;;;1.00;1.00;;;;;19.75;74.75;100782.31;5060460;28;45636;-73
2023/09/01 01:01:20;;;;;;;;;1.00;0.00;;;;;19.68;74.87;100773.38;5059902;28;45288;-73
2023/09/01 01:03:47;;;;;;;;;0.75;0.00;;;;;19.77;75.01;100792.06;5058464;28;45354;-72
2023/09/01 01:06:27;;;;;;;;;0.75;0.25;;;;;19.81;75.12;100788.75;5060043;28;45482;-72
2023/09/01 01:09:38;;;;;;;;;1.00;1.00;;;;;19.84;74.91;100790.25;5058688;28;45509;-72
2023/09/01 01:12:45;;;;;;;;;1.25;1.00;;;;;19.86;74.91;100790.88;5059759;28;45581;-71
2023/09/01 01:15:14;;;;;;;;;0.75;0.75;;;;;19.85;74.72;100783.81;5057496;28;45215;-72
2023/09/01 01:17:44;;;;;;;;;1.00;1.00;;;;;19.75;74.87;100768.81;5059743;28;45537;-73
2023/09/01 01:20:15;;;;;;;;;1.00;1.00;;;;;19.85;74.78;100787.34;5058445;28;45542;-72
2023/09/01 01:22:44;;;;;;;;;1.00;1.00;;;;;19.56;74.63;100731.84;5060019;28;46288;-72
2023/09/01 01:25:11;;;;;;;;;0.00;0.00;;;;;19.74;74.78;100767.16;5059751;28;45280;-72
2023/09/01 01:27:38;;;;;;;;;0.00;0.00;;;;;19.84;74.70;100776.75;5060025;28;45328;-71
2023/09/01 01:30:07;;;;;;;;;2.50;1.25;;;;;19.82;74.48;100779.63;5060043;28;45511;-72
2023/09/01 01:32:33;;;;;;;;;0.00;0.00;;;;;19.88;74.02;100775.31;5059423;28;45835;-73
2023/09/01 01:35:21;;;;;;;;;1.00;0.00;;;;;19.90;74.11;100778.63;5059623;28;45380;-72
2023/09/01 01:38:11;;;;;;;;;1.00;1.00;;;;;19.91;73.96;100778.41;5059150;28;45462;-72
2023/09/01 01:40:38;;;;;;;;;1.00;1.00;;;;;19.46;73.71;100701.72;5057842;28;45420;-71
2023/09/01 01:43:06;;;;;;;;;0.25;0.00;;;;;19.82;73.66;100768.84;5059488;28;45582;-71
2023/09/01 01:45:33;;;;;;;;;1.00;0.00;;;;;19.83;73.96;100775.09;5059433;28;45505;-71
2023/09/01 01:47:59;;;;;;;;;0.75;0.75;;;;;19.78;73.95;100759.50;5059125;28;45418;-72
2023/09/01 01:50:24;;;;;;;;;1.00;1.00;;;;;19.78;73.82;100772.97;5059948;28;45295;-70
2023/09/01 01:52:50;;;;;;;;;1.00;1.00;;;;;19.78;73.72;100775.69;5058840;28;58169;-71
2023/09/01 01:55:16;;;;;;;;;1.00;1.00;;;;;19.78;73.67;100764.88;5059208;28;45378;-74
2023/09/01 01:57:41;;;;;;;;;1.00;1.00;;;;;19.76;73.66;100761.56;5059579;28;45477;-72
2023/09/01 02:00:11;;;;;;;;;1.50;0.00;;;;;19.65;73.60;100757.59;5059909;28;45558;-71
2023/09/01 02:02:39;;;;;;;;;1.00;1.00;;;;;19.49;74.06;100728.25;5059050;28;46377;-72
2023/09/01 02:05:06;;;;;;;;;1.33;1.33;;;;;19.65;73.28;100752.22;5057710;28;45376;-71
2023/09/01 02:07:32;;;;;;;;;0.00;0.00;;;;;19.71;73.01;100770.28;5057111;28;45473;-72
2023/09/01 02:09:58;;;;;;;;;0.00;0.00;;;;;19.67;73.14;100769.03;5059631;28;45341;-72
2023/09/01 02:12:23;;;;;;;;;1.00;1.00;;;;;19.59;72.87;100753.00;5058561;28;58637;-71
2023/09/01 02:14:48;;;;;;;;;0.00;0.00;;;;;19.60;72.92;100748.44;5059188;28;45371;-71
2023/09/01 02:17:13;;;;;;;;;1.75;1.00;;;;;19.63;72.67;100753.44;5058897;28;55047;-70
2023/09/01 02:19:39;;;;;;;;;1.25;0.00;;;;;19.60;72.87;100761.91;5057071;28;51508;-72
2023/09/01 02:22:05;;;;;;;;;0.00;0.00;;;;;19.26;72.80;100709.72;5058899;28;45350;-71
2023/09/01 02:24:31;;;;;;;;;0.75;0.75;;;;;19.60;72.88;100762.75;5058830;28;45269;-73
2023/09/01 02:26:56;;;;;;;;;0.50;0.50;;;;;19.59;72.52;100763.78;5058927;28;45276;-71
2023/09/01 02:29:22;;;;;;;;;0.50;0.50;;;;;19.59;72.50;100760.25;5059065;28;45225;-73
2023/09/01 02:31:48;;;;;;;;;1.00;0.00;;;;;19.49;72.88;100752.53;5058699;28;46603;-73
2023/09/01 02:34:13;;;;;;;;;1.00;1.00;;;;;19.45;72.33;100735.09;5058556;28;45361;-73
2023/09/01 02:36:39;;;;;;;;;1.25;0.25;;;;;19.61;72.12;100767.13;5058984;28;45292;-72
2023/09/01 02:39:07;;;;;;;;;0.00;0.00;;;;;19.55;72.34;100759.84;5059047;28;45537;-72
2023/09/01 02:41:33;;;;;;;;;0.50;0.50;;;;;19.54;71.99;100750.09;5058720;28;45624;-71
2023/09/01 02:43:58;;;;;;;;;0.00;0.00;;;;;19.50;72.42;100743.41;5057470;28;46122;-71
2023/09/01 02:46:24;;;;;;;;;1.00;1.00;;;;;19.57;71.72;100763.16;5058758;28;45238;-73
2023/09/01 02:48:50;;;;;;;;;0.75;0.50;;;;;19.51;72.12;100755.84;5058582;28;45222;-72
2023/09/01 02:51:16;;;;;;;;;0.00;0.00;;;;;19.37;72.16;100737.97;5058511;28;46287;-73
2023/09/01 02:53:41;;;;;;;;;1.75;1.00;;;;;19.20;72.11;100710.50;5058504;28;45435;-71
2023/09/01 02:56:07;;;;;;;;;1.00;1.00;;;;;19.37;72.03;100740.66;5058674;28;45414;-70
2023/09/01 02:58:32;;;;;;;;;0.00;0.00;;;;;19.42;71.89;100754.34;5058815;28;45584;-72
2023/09/01 03:00:58;;;;;;;;;0.00;0.00;;;;;19.47;71.99;100754.59;5058314;28;45720;-73
2023/09/01 03:03:24;;;;;;;;;0.00;0.00;;;;;19.47;72.31;100769.94;5057957;28;45517;-73
2023/09/01 03:05:51;;;;;;;;;0.50;0.50;;;;;19.49;72.19;100768.72;5056676;28;45316;-72
2023/09/01 03:08:23;;;;;;;;;1.00;1.00;;;;;19.44;72.29;100766.63;5058764;28;45639;-73
2023/09/01 03:10:48;;;;;;;;;0.25;0.25;;;;;19.46;72.17;100763.72;5058202;28;45688;-72
2023/09/01 03:13:14;;;;;;;;;0.75;0.75;;;;;19.45;72.09;100779.06;5058308;28;45492;-73
2023/09/01 03:15:40;;;;;;;;;0.00;0.00;;;;;19.42;72.24;100778.63;5058259;28;45247;-71
2023/09/01 03:18:06;;;;;;;;;1.00;1.00;;;;;19.41;72.44;100775.09;5058028;28;45501;-72
2023/09/01 03:20:31;;;;;;;;;2.75;1.25;;;;;19.36;72.69;100764.09;5057728;28;46500;-72
2023/09/01 03:22:57;;;;;;;;;0.00;0.00;;;;;19.34;72.51;100760.75;5058084;28;45304;-70
2023/09/01 03:25:22;;;;;;;;;1.00;0.00;;;;;19.37;72.47;100756.84;5058115;28;45527;-72
2023/09/01 03:27:47;;;;;;;;;0.75;0.75;;;;;19.37;72.74;100759.53;5058169;28;45193;-71
2023/09/01 03:30:13;;;;;;;;;0.00;0.00;;;;;19.29;72.56;100757.84;5057278;28;61009;-72
2023/09/01 03:32:38;;;;;;;;;1.25;0.00;;;;;19.31;72.55;100749.56;5057638;28;45562;-72
2023/09/01 03:35:05;;;;;;;;;0.50;0.50;;;;;19.34;72.21;100747.28;5058087;28;45293;-71
2023/09/01 03:37:31;;;;;;;;;0.25;0.25;;;;;19.40;72.38;100759.13;5058398;28;45462;-72
2023/09/01 03:39:56;;;;;;;;;0.00;0.00;;;;;19.27;72.49;100732.97;5057823;28;45714;-72
2023/09/01 03:42:21;;;;;;;;;1.00;1.00;;;;;19.33;72.49;100748.31;5057739;28;45342;-71
2023/09/01 03:44:47;;;;;;;;;1.00;1.00;;;;;19.23;72.40;100733.56;5057870;28;45387;-71
2023/09/01 03:47:13;;;;;;;;;0.00;0.00;;;;;19.33;73.00;100759.09;5057868;28;45432;-72
2023/09/01 03:49:38;;;;;;;;;2.25;0.75;;;;;19.37;72.63;100754.97;5057291;28;46287;-73
2023/09/01 03:52:04;;;;;;;;;0.00;0.00;;;;;19.42;72.63;100757.91;5057491;28;45999;-72
2023/09/01 03:54:29;;;;;;;;;0.25;0.25;;;;;19.41;72.78;100758.09;5057801;28;45465;-72
2023/09/01 03:56:54;;;;;;;;;0.50;0.50;;;;;19.41;72.78;100758.09;5057599;28;45454;-73
2023/09/01 03:59:20;;;;;;;;;0.25;0.25;;;;;19.35;72.54;100751.66;5057467;28;45762;-74
2023/09/01 04:01:47;;;;;;;;;0.50;0.50;;;;;19.31;72.80;100747.69;5056047;28;45561;-72
2023/09/01 04:04:13;;;;;;;;;0.00;0.00;;;;;19.21;72.92;100738.31;5057246;28;45587;-72
2023/09/01 04:06:39;;;;;;;;;0.00;0.00;;;;;19.33;72.79;100748.31;5073298;27;45584;-72
2023/09/01 04:09:05;;;;;;;;;1.00;1.00;;;;;19.28;72.95;100744.56;5055801;28;47430;-72
2023/09/01 04:11:31;;;;;;;;;0.00;0.00;;;;;19.25;73.00;100736.91;5057395;28;45368;-72
2023/09/01 04:13:56;;;;;;;;;1.00;1.00;;;;;19.27;73.08;100732.97;5057338;28;45294;-72
2023/09/01 04:16:22;;;;;;;;;0.25;0.25;;;;;19.25;73.17;100753.06;5056346;28;45453;-71
2023/09/01 04:18:48;;;;;;;;;2.00;1.00;;;;;19.12;73.32;100727.69;5056535;28;45800;-72
2023/09/01 04:21:13;;;;;;;;;0.00;0.00;;;;;19.15;73.66;100740.78;5056910;28;45477;-71
2023/09/01 04:23:39;;;;;;;;;1.00;1.00;;;;;19.14;73.80;100738.28;5057402;28;45341;-72
2023/09/01 04:26:05;;;;;;;;;0.67;0.67;;;;;19.13;73.50;100742.84;5057341;28;45360;-73
2023/09/01 04:28:31;;;;;;;;;2.00;1.00;;;;;19.14;73.82;100739.09;5056365;28;52292;-72
2023/09/01 04:30:59;;;;;;;;;2.00;2.00;;;;;19.09;74.00;100733.50;5056978;28;45372;-73
2023/09/01 04:33:26;;;;;;;;;1.50;1.50;;;;;18.99;74.39;100714.16;5056771;28;45286;-72
2023/09/01 04:36:03;;;;;;;;;3.00;2.00;;;;;19.00;74.18;100718.50;5057728;28;45439;-74
2023/09/01 04:38:29;;;;;;;;;1.00;1.00;;;;;19.04;74.40;100741.34;5056707;28;45581;-73
2023/09/01 04:40:58;;;;;;;;;1.50;0.50;;;;;18.74;74.12;100694.97;5056592;28;45506;-73
2023/09/01 04:43:27;;;;;;;;;2.00;1.25;;;;;19.01;73.94;100736.34;5056907;28;45348;-73
2023/09/01 04:45:54;;;;;;;;;1.00;1.00;;;;;18.71;74.31;100689.97;5057159;28;45319;-72
2023/09/01 04:48:20;;;;;;;;;1.50;1.00;;;;;19.04;74.23;100751.31;5071919;28;48559;-73
2023/09/01 04:50:46;;;;;;;;;0.75;0.75;;;;;18.86;74.79;100713.28;5056801;28;45518;-71
2023/09/01 04:53:11;;;;;;;;;0.75;0.75;;;;;18.86;74.35;100708.72;5056685;28;45316;-71
2023/09/01 04:55:36;;;;;;;;;3.00;1.00;;;;;19.02;74.53;100740.72;5055440;28;45349;-71
2023/09/01 04:58:02;;;;;;;;;1.33;1.33;;;;;18.83;74.32;100718.03;5056277;28;46137;-74
2023/09/01 05:00:27;;;;;;;;;1.00;1.00;;;;;19.10;74.17;100753.19;5056573;28;45432;-70
2023/09/01 05:02:53;;;;;;;;;2.00;2.00;;;;;19.09;74.19;100757.75;5056064;28;49031;-73
2023/09/01 05:05:18;;;;;;;;;1.00;1.00;;;;;18.84;74.30;100705.41;5056860;28;45408;-74
2023/09/01 05:07:43;;;;;;;;;1.00;1.00;;;;;18.92;74.40;100724.06;5056216;28;46480;-74
2023/09/01 05:10:10;;;;;;;;;0.00;0.00;;;;;19.12;74.23;100751.13;5055823;28;45328;-73
2023/09/01 05:12:35;;;;;;;;;4.33;4.33;;;;;19.10;74.34;100745.94;5056487;28;45280;-73
2023/09/01 05:15:01;;;;;;;;;2.00;0.25;;;;;19.19;74.21;100761.94;5056406;28;45265;-72
2023/09/01 05:17:27;;;;;;;;;1.00;1.00;;;;;19.01;74.23;100732.81;5056193;28;46513;-72
2023/09/01 05:19:53;;;;;;;;;1.75;1.75;;;;;19.07;74.17;100746.34;5055996;28;45413;-72
2023/09/01 05:22:18;;;;;;;;;2.00;2.00;;;;;19.08;74.44;100744.47;5056472;28;45492;-72
2023/09/01 05:24:44;;;;;;;;;0.50;0.50;;;;;19.11;74.17;100746.75;5056499;28;45415;-72
2023/09/01 05:27:09;;;;;;;;;2.00;1.00;;;;;19.23;74.26;100758.66;5056030;28;45706;-72
2023/09/01 05:29:34;;;;;;;;;1.50;1.00;;;;;19.24;74.21;100754.09;5056411;28;45400;-73
2023/09/01 05:32:00;;;;;;;;;3.33;3.00;;;;;19.24;74.32;100746.00;5055223;28;61672;-72
2023/09/01 05:34:26;;;;;;;;;1.75;1.00;;;;;18.99;74.16;100697.16;5054087;28;45332;-74
2023/09/01 05:36:51;;;;;;;;;2.00;2.00;;;;;19.28;74.36;100749.97;5055491;28;46455;-73
2023/09/01 05:39:17;;;;;;;;;1.50;0.00;;;;;19.28;74.21;100756.19;5055984;28;45451;-73
2023/09/01 05:41:42;;;;;;;;;1.25;1.25;;;;;19.20;74.15;100742.03;5055993;28;45443;-74
2023/09/01 05:44:08;;;;;;;;;0.00;0.00;;;;;19.29;74.11;100757.00;5059759;28;45407;-74
2023/09/01 05:46:33;;;;;;;;;1.00;1.00;;;;;19.33;74.46;100767.19;5059294;28;46624;-71
2023/09/01 05:48:58;;;;;;;;;0.75;0.75;;;;;19.18;74.35;100739.53;5059167;28;45221;-73
2023/09/01 05:51:24;;;;;;;;;1.00;1.00;;;;;19.22;74.35;100754.31;5059615;28;45197;-73
2023/09/01 05:53:49;;;;;;;;;2.00;2.00;;;;;19.04;73.90;100717.09;5059757;28;45424;-73
2023/09/01 05:56:16;;;;;;;;;3.00;0.00;;;;;19.41;74.21;100779.66;5058936;28;46752;-73
2023/09/01 05:58:41;;;;;;;;;3.00;1.50;;;;;19.32;74.17;100768.22;5058850;28;45271;-73
2023/09/01 06:01:06;;;;;;;;;1.67;1.00;;;;;19.40;74.49;100780.69;5059168;28;45287;-72
2023/09/01 06:03:32;;;;;;;;;1.75;1.75;;;;;19.40;74.35;100786.09;5059334;28;45347;-72
2023/09/01 06:05:57;;;;;;;;;0.00;0.00;;;;;19.33;74.29;100769.06;5058717;28;52175;-73
2023/09/01 06:08:22;;;;;;;;;0.00;0.00;;;;;19.41;73.92;100793.13;5058191;28;45542;-72
2023/09/01 06:10:48;;;;;;;;;2.50;1.25;;;;;19.44;74.21;100795.47;5057535;28;45381;-72
2023/09/01 06:13:13;;;;;;;;;4.25;1.50;;;;;19.46;74.00;100798.78;5059399;28;45471;-73
2023/09/01 06:15:39;;;;;;;;;2.25;1.75;;;;;19.48;74.13;100809.38;5058365;28;46090;-73
2023/09/01 06:18:04;;;;;;;;;3.25;1.25;;;;;19.36;74.07;100779.44;5073647;28;45419;-72
2023/09/01 06:20:30;;;;;;;;;1.00;1.00;;;;;19.47;74.19;100795.06;5058299;28;46450;-73
2023/09/01 06:22:55;;;;;;;;;1.25;1.25;;;;;19.53;74.07;100818.50;5073753;28;45390;-73
2023/09/01 06:25:21;;;;;;;;;0.00;0.00;;;;;19.45;74.40;100806.03;5058800;28;46241;-73
2023/09/01 06:27:47;;;;;;;;;3.33;1.33;;;;;19.54;74.31;100812.13;5058655;28;45386;-73
2023/09/01 06:30:12;;;;;;;;;1.75;1.25;;;;;19.50;74.31;100801.91;5058628;28;45492;-73
2023/09/01 06:32:37;;;;;;;;;4.00;2.00;;;;;19.42;74.56;100789.41;5058776;28;45395;-72
2023/09/01 06:35:03;;;;;;;;;1.00;1.00;;;;;19.56;74.24;100804.66;5058513;28;45552;-72
2023/09/01 06:37:29;;;;;;;;;0.00;0.00;;;;;19.26;74.13;100752.03;5058950;28;45162;-73
2023/09/01 06:39:54;;;;;;;;;0.00;0.00;;;;;19.62;73.95;100795.78;5074356;27;45236;-73
2023/09/01 06:42:20;;;;;;;;;1.75;1.75;;;;;19.78;73.66;100804.50;5074218;27;45582;-76
2023/09/01 06:44:45;;;;;;;;;2.00;2.00;;;;;19.82;73.55;100811.16;5073614;27;45855;-74
2023/09/01 06:47:11;;;;;;;;;1.00;1.00;;;;;19.86;73.34;100807.88;5057221;28;45352;-73
2023/09/01 06:49:36;;;;;;;;;0.25;0.25;;;;;19.93;73.71;100810.59;5058770;28;45872;-72
2023/09/01 06:52:02;;;;;;;;;1.00;1.00;;;;;19.82;73.01;100794.97;5057261;28;45493;-70
2023/09/01 06:54:27;;;;;;;;;3.00;1.25;;;;;19.84;73.04;100782.97;5057769;28;46422;-70
2023/09/01 06:56:53;;;;;;;;;2.00;1.00;;;;;19.73;73.36;100776.28;5056874;28;45517;-70
2023/09/01 06:59:18;;;;;;;;;3.00;1.00;;;;;19.91;73.51;100793.78;5058472;28;45437;-71
2023/09/01 07:01:43;;;;;;;;;1.00;1.00;;;;;19.97;73.50;100792.94;5058319;28;45352;-70
2023/09/01 07:04:09;;;;;;;;;1.00;1.00;;;;;19.47;74.02;100738.44;5057900;28;45613;-71
2023/09/01 07:06:34;;;;;;;;;3.75;1.75;;;;;19.74;74.04;100772.56;5058365;28;45275;-73
2023/09/01 07:09:00;;;;;;;;;4.00;1.00;;;;;19.99;73.96;100807.06;5057692;28;52212;-73
2023/09/01 07:11:25;;;;;;;;;0.50;0.50;;;;;20.04;73.93;100801.91;5058355;28;45221;-73
2023/09/01 07:13:50;;;;;;;;;0.25;0.25;;;;;20.18;73.63;100811.69;5073655;27;47300;-76
2023/09/01 07:16:16;;;;;;;;;1.25;1.25;;;;;20.01;73.50;100786.94;5058451;28;46734;-73
2023/09/01 07:18:41;;;;;;;;;1.00;1.00;;;;;19.83;73.11;100745.41;5058053;28;45418;-73
2023/09/01 07:21:06;;;;;;;;;1.50;1.00;;;;;20.25;73.18;100820.63;5058324;28;45364;-75
2023/09/01 07:23:32;;;;;;;;;1.00;1.00;;;;;20.32;73.37;100807.97;5057621;28;46406;-76
2023/09/01 07:25:59;;;;;;;;;2.00;2.00;;;;;20.29;73.51;100819.19;5057782;28;45435;-75
2023/09/01 07:28:24;;;;;;;;;1.00;1.00;;;;;20.25;73.38;100812.53;5055971;28;45498;-74
2023/09/01 07:30:50;;;;;;;;;5.00;4.00;;;;;20.23;73.58;100809.22;5057475;28;45218;-74
2023/09/01 07:33:16;;;;;;;;;1.00;1.00;;;;;20.23;73.47;100798.41;5055268;28;47528;-73
2023/09/01 07:35:52;;;;;;;;;3.25;2.00;;;;;20.34;73.36;100815.84;5057636;28;45256;-74
2023/09/01 07:38:17;;;;;;;;;0.50;0.50;;;;;20.38;73.59;100817.09;5057876;28;45528;-75
2023/09/01 07:40:44;;;;;;;;;2.00;0.50;;;;;20.53;73.53;100820.47;5058110;28;45266;-75
2023/09/01 07:43:10;;;;;;;;;1.00;1.00;;;;;20.51;73.73;100822.56;5058480;28;46965;-74
2023/09/01 07:45:36;;;;;;;;;0.00;0.00;;;;;20.46;73.35;100813.41;5057466;28;45527;-74
2023/09/01 07:48:02;;;;;;;;;2.00;2.00;;;;;20.38;73.35;100805.47;5057159;28;45371;-72
2023/09/01 07:50:30;;;;;;;;;0.25;0.25;;;;;20.56;73.17;100819.22;5057267;28;45580;-73
2023/09/01 07:52:56;;;;;;;;;0.00;0.00;;;;;20.57;73.00;100820.88;5072138;28;46610;-71
2023/09/01 07:55:22;;;;;;;;;0.00;0.00;;;;;20.56;73.31;100813.81;5054712;28;45482;-72
2023/09/01 07:57:47;;;;;;;;;1.25;1.25;;;;;20.67;73.49;100821.31;5057620;28;45241;-76
2023/09/01 08:00:13;;;;;;;;;3.00;2.00;;;;;20.57;73.13;100793.88;5057511;28;45426;-74
2023/09/01 08:02:38;;;;;;;;;1.25;1.25;;;;;20.83;72.63;100825.47;5056225;28;46841;-74
2023/09/01 08:05:05;;;;;;;;;1.50;1.00;;;;;20.94;72.46;100833.75;5055838;28;45539;-76
2023/09/01 08:07:31;;;;;;;;;1.00;1.00;;;;;21.05;71.75;100834.19;5056657;28;45398;-73
2023/09/01 08:09:57;;;;;;;;;4.00;0.50;;;;;21.07;71.63;100832.09;5057247;28;45458;-72
2023/09/01 08:12:23;;;;;;;;;0.75;0.75;;;;;21.04;71.69;100838.75;5056929;28;45443;-71
2023/09/01 08:14:48;;;;;;;;;1.00;1.00;;;;;21.02;71.50;100834.56;5057056;28;45250;-72
2023/09/01 08:17:13;;;;;;;;;1.50;1.00;;;;;21.15;71.24;100854.31;5056864;28;45195;-74
2023/09/01 08:19:40;;;;;;;;;1.00;0.00;;;;;21.23;70.99;100839.75;5056664;28;45738;-72
2023/09/01 08:22:06;;;;;;;;;0.00;0.00;;;;;21.12;70.40;100810.66;5055058;28;48551;-71
2023/09/01 08:24:31;;;;;;;;;3.00;2.00;;;;;21.30;70.40;100846.00;5056066;28;45350;-70
2023/09/01 08:26:56;;;;;;;;;0.00;0.00;;;;;21.32;69.77;100835.81;5056537;28;45214;-74
2023/09/01 08:29:22;;;;;;;;;1.00;0.00;;;;;21.31;69.66;100827.91;5057133;28;45466;-72
2023/09/01 08:31:47;;;;;;;;;1.50;0.75;;;;;21.37;69.07;100833.28;5054766;28;47515;-76
2023/09/01 08:34:12;;;;;;;;;0.00;0.00;;;;;21.29;69.38;100825.41;5056812;28;45236;-80
2023/09/01 08:36:38;;;;;;;;;0.50;0.50;;;;;21.09;69.16;100786.75;5058571;28;45837;-78
2023/09/01 08:39:04;;;;;;;;;1.75;1.75;;;;;21.30;69.43;100824.38;5057282;28;45419;-76
2023/09/01 08:41:29;;;;;;;;;0.25;0.25;;;;;21.24;69.19;100823.34;5054798;28;45507;-78
2023/09/01 08:44:01;;;;;;;;;0.50;0.50;;;;;21.40;68.93;100837.44;5054440;28;45375;-76
2023/09/01 08:46:28;;;;;;;;;0.25;0.25;;;;;21.30;68.60;100788.38;5045390;28;45618;-76
2023/09/01 08:48:54;;;;;;;;;0.00;0.00;;;;;21.80;68.14;100838.13;5053390;28;45595;-76
2023/09/01 08:51:21;;;;;;;;;0.00;0.00;;;;;21.97;67.18;100833.88;5043446;28;45759;-77
2023/09/01 08:53:48;;;;;;;;;1.00;1.00;;;;;22.05;66.74;100830.97;5052673;28;45473;-78
2023/09/01 08:56:14;;;;;;;;;0.00;0.00;;;;;21.93;66.30;100805.56;5053200;28;45329;-72
2023/09/01 08:58:40;;;;;;;;;0.75;0.00;;;;;22.16;65.52;100835.66;5049622;28;45406;-73
2023/09/01 09:01:06;;;;;;;;;1.00;1.00;;;;;22.15;65.24;100833.19;5039843;28;48625;-73
2023/09/01 09:03:32;;;;;;;;;0.00;0.00;;;;;22.13;65.41;100838.81;5040279;28;45493;-74
2023/09/01 09:05:58;;;;;;;;;0.00;0.00;;;;;22.28;65.53;100857.47;5054277;28;46641;-72
2023/09/01 09:08:24;;;;;;;;;1.00;1.00;;;;;22.08;64.97;100811.56;5071890;28;45430;-72
2023/09/01 09:10:49;;;;;;;;;2.00;2.00;;;;;22.22;64.40;100835.84;5054915;28;46667;-71
2023/09/01 09:13:28;;;;;;;;;3.25;3.25;;;;;22.22;64.51;100825.84;5054600;28;45349;-75
2023/09/01 09:16:06;;;;;;;;;0.00;0.00;;;;;22.50;64.01;100839.00;5055812;28;45482;-71
2023/09/01 09:18:32;;;;;;;;;2.00;1.00;;;;;22.33;63.27;100779.09;5059391;28;45270;-71
2023/09/01 09:20:57;;;;;;;;;0.75;0.75;;;;;23.14;61.76;100791.72;5057896;28;47030;-72
2023/09/01 09:23:43;;;;;;;;;4.00;2.00;;;;;24.64;58.07;100829.84;5059673;28;45496;-73
2023/09/01 09:26:09;;;;;;;;;0.50;0.50;;;;;25.92;53.31;100825.31;5060041;28;45797;-72
2023/09/01 09:28:35;;;;;;;;;0.75;0.75;;;;;26.74;51.39;100827.59;5059422;28;45401;-72
2023/09/01 09:31:00;;;;;;;;;4.00;4.00;;;;;27.90;49.60;100842.06;5059444;28;45487;-72
2023/09/01 09:33:32;;;;;;;;;1.00;1.00;;;;;28.56;46.92;100840.00;5057877;28;45348;-72
2023/09/01 09:35:58;;;;;;;;;1.50;1.50;;;;;28.46;45.54;100845.41;5059775;28;45465;-72
2023/09/01 09:38:37;;;;;;;;;0.50;0.50;;;;;27.81;46.01;100838.94;5059709;28;45374;-72
2023/09/01 09:41:03;;;;;;;;;2.00;2.00;;;;;27.27;48.10;100846.16;5059053;28;46095;-72
2023/09/01 09:43:30;;;;;;;;;0.50;0.50;;;;;27.00;48.80;100842.47;5058858;28;56721;-72
2023/09/01 09:45:56;;;;;;;;;1.00;1.00;;;;;26.70;48.82;100832.72;5059247;28;45256;-73
2023/09/01 09:48:21;;;;;;;;;2.00;1.25;;;;;26.81;48.89;100834.53;5074245;28;45367;-73
2023/09/01 09:50:51;;;;;;;;;0.25;0.25;;;;;26.62;48.87;100820.31;5058751;28;45561;-73
2023/09/01 09:53:22;;;;;;;;;0.00;0.00;;;;;26.59;50.03;100836.34;5058974;28;45533;-73
2023/09/01 09:55:50;;;;;;;;;1.25;1.25;;;;;26.67;49.92;100833.22;5059018;28;45452;-72
2023/09/01 09:58:33;;;;;;;;;2.00;2.00;;;;;27.26;48.11;100834.44;5059167;28;45485;-73
2023/09/01 10:01:02;;;;;;;;;1.00;1.00;;;;;28.39;45.99;100831.09;5058975;28;45862;-72
2023/09/01 10:03:31;;;;;;;;;2.50;1.00;;;;;29.10;44.14;100818.00;5057136;28;45565;-72
2023/09/01 10:05:58;;;;;;;;;0.50;0.50;;;;;29.87;41.75;100843.84;5057778;28;45207;-71
2023/09/01 10:08:24;;;;;;;;;2.00;2.00;;;;;29.77;42.50;100847.34;5059173;28;45417;-71
2023/09/01 10:10:50;;;;;;;;;0.00;0.00;;;;;29.76;42.83;100845.69;5058717;28;46358;-71
2023/09/01 10:13:16;;;;;;;;;0.50;0.25;;;;;29.67;42.86;100852.81;5057603;28;45481;-71
2023/09/01 10:15:42;;;;;;;;;1.25;1.25;;;;;29.27;43.50;100829.59;5059034;28;45447;-72
2023/09/01 10:18:08;;;;;;;;;1.00;1.00;;;;;28.68;43.43;100807.84;5058954;28;45438;-71
2023/09/01 10:20:36;;;;;;;;;1.25;1.25;;;;;28.76;44.69;100840.16;5058188;28;46511;-72
2023/09/01 10:23:03;;;;;;;;;0.00;0.00;;;;;28.58;44.39;100848.78;5058767;28;45496;-73
2023/09/01 10:25:29;;;;;;;;;3.00;3.00;;;;;28.47;45.25;100834.19;5058476;28;45516;-72
2023/09/01 10:28:12;;;;;;;;;1.75;1.00;;;;;28.47;44.41;100836.13;5073276;27;45598;-73
2023/09/01 10:30:42;;;;;;;;;0.00;0.00;;;;;27.98;44.88;100827.09;5058468;28;45774;-72
2023/09/01 10:33:24;;;;;;;;;1.00;1.00;;;;;27.77;45.38;100847.91;5057274;28;45612;-75
2023/09/01 10:35:51;;;;;;;;;3.75;2.75;;;;;27.35;45.99;100855.81;5058523;28;45271;-72
2023/09/01 10:38:22;;;;;;;;;0.00;0.00;;;;;26.94;46.94;100850.56;5058398;28;45393;-71
2023/09/01 10:40:52;;;;;;;;;0.00;0.00;;;;;26.64;47.85;100856.38;5057651;28;46987;-73
2023/09/01 10:43:36;;;;;;;;;1.00;1.00;;;;;26.28;48.55;100854.06;5057983;28;45461;-73
2023/09/01 10:46:14;;;;;;;;;2.00;1.00;;;;;25.86;49.51;100861.72;5057735;28;45427;-72
2023/09/01 10:48:54;;;;;;;;;8.33;7.00;;;;;25.63;50.77;100866.13;5058407;28;45409;-72
2023/09/01 10:51:24;;;;;;;;;1.00;1.00;;;;;25.18;50.67;100797.91;5058215;28;46613;-73
2023/09/01 10:53:53;;;;;;;;;3.75;3.75;;;;;25.41;51.16;100865.91;5058002;28;45399;-75
2023/09/01 10:56:20;;;;;;;;;0.50;0.50;;;;;25.32;51.26;100853.75;5058223;28;45395;-72
2023/09/01 10:58:47;;;;;;;;;0.00;0.00;;;;;25.40;51.30;100847.09;5058477;28;45244;-73
2023/09/01 11:01:34;;;;;;;;;1.00;1.00;;;;;25.56;51.15;100854.53;5072198;28;46708;-73
2023/09/01 11:04:21;;;;;;;;;1.00;1.00;;;;;25.72;51.14;100858.44;5057298;28;45292;-73
2023/09/01 11:06:56;;;;;;;;;1.25;1.25;;;;;25.82;50.37;100858.63;5071197;27;45414;-72
2023/09/01 11:09:22;;;;;;;;;1.00;1.00;;;;;25.74;50.25;100846.22;5073517;28;45673;-74
2023/09/01 11:11:50;;;;;;;;;1.00;1.00;;;;;25.78;50.44;100855.56;5056542;28;47050;-73
2023/09/01 11:14:20;;;;;;;;;3.00;1.50;;;;;25.75;50.23;100856.03;5057679;28;45408;-73
2023/09/01 11:16:45;;;;;;;;;1.00;1.00;;;;;25.74;50.82;100857.13;5057768;28;45392;-74
2023/09/01 11:19:11;;;;;;;;;0.00;0.00;;;;;25.72;50.76;100863.88;5057647;28;45300;-72
2023/09/01 11:21:36;;;;;;;;;2.00;2.00;;;;;25.65;50.94;100841.38;5057776;28;45496;-72
2023/09/01 11:24:03;;;;;;;;;0.00;0.00;;;;;25.81;50.44;100861.59;5056066;28;45466;-74